Time;durP1;ratioP1;P1;durP2;ratioP2;P2;SDS_P1;SDS_P2;PMS_P1;PMS_P2;Temp;Humidity;BMP_temperature;BMP_pressure;BME280_temperature;BME280_humidity;BME280_pressure;Samples;Min_cycle;Max_cycle;Signal;HPM_P1;HPM_P2
2024/03/31 00:01:18;;;;;;;1.80;1.70;;;20.20;1.00;;;;;;2611685;54;20523;-62
2024/03/31 00:03:46;;;;;;;0.60;0.50;;;20.10;1.00;;;;;;2612269;54;20250;-63
2024/03/31 00:06:12;;;;;;;1.00;0.93;;;20.10;1.00;;;;;;2611454;54;20187;-62
2024/03/31 00:08:38;;;;;;;0.67;0.50;;;20.10;1.00;;;;;;2612318;47;20415;-63
2024/03/31 00:11:07;;;;;;;0.70;0.60;;;20.20;1.00;;;;;;2612550;54;20684;-63
2024/03/31 00:13:33;;;;;;;0.70;0.57;;;20.20;1.00;;;;;;2613508;39;20660;-63
2024/03/31 00:15:59;;;;;;;0.70;0.60;;;20.10;1.00;;;;;;2613630;39;21021;-63
2024/03/31 00:18:25;;;;;;;0.70;0.50;;;20.10;1.00;;;;;;2612865;54;20407;-63
2024/03/31 00:20:54;;;;;;;0.70;0.60;;;20.20;1.00;;;;;;2612670;47;21067;-63
2024/03/31 00:23:21;;;;;;;0.63;0.57;;;20.10;1.00;;;;;;2612813;54;20193;-61
2024/03/31 00:25:54;;;;;;;2.57;2.00;;;20.10;1.00;;;;;;2612602;54;20419;-63
2024/03/31 00:28:20;;;;;;;0.70;0.60;;;20.10;1.00;;;;;;2612843;54;20442;-62
2024/03/31 00:30:56;;;;;;;0.70;0.50;;;20.10;1.00;;;;;;2613018;54;20427;-63
2024/03/31 00:33:22;;;;;;;0.70;0.60;;;20.10;1.00;;;;;;2612844;47;20166;-63
2024/03/31 00:35:56;;;;;;;1.33;1.23;;;20.10;1.00;;;;;;2612410;54;20439;-63
2024/03/31 00:38:25;;;;;;;0.67;0.57;;;20.10;1.00;;;;;;2612559;54;20407;-63
2024/03/31 00:40:52;;;;;;;0.70;0.70;;;20.10;1.00;;;;;;2612663;54;20443;-62
2024/03/31 00:43:17;;;;;;;0.70;0.50;;;20.10;1.00;;;;;;2612170;39;20888;-63
2024/03/31 00:45:43;;;;;;;0.60;0.50;;;20.10;1.00;;;;;;2612510;39;20858;-64
2024/03/31 00:48:09;;;;;;;0.60;0.50;;;20.10;1.00;;;;;;2613645;31;20659;-63
2024/03/31 00:50:36;;;;;;;0.63;0.50;;;20.10;1.00;;;;;;2613168;47;20415;-62
2024/03/31 00:53:01;;;;;;;0.70;0.60;;;20.10;1.00;;;;;;2611897;47;20454;-65
2024/03/31 00:55:27;;;;;;;1.77;1.67;;;20.10;1.00;;;;;;2612373;39;20624;-66
2024/03/31 00:57:53;;;;;;;0.60;0.50;;;20.10;1.00;;;;;;2612321;54;20178;-66
2024/03/31 01:00:19;;;;;;;0.70;0.60;;;20.10;1.00;;;;;;2611599;54;20547;-67
2024/03/31 01:02:46;;;;;;;0.70;0.50;;;20.10;1.00;;;;;;2611802;54;20160;-67
2024/03/31 01:05:12;;;;;;;0.60;0.50;;;20.10;1.00;;;;;;2612260;54;20535;-65
2024/03/31 01:07:38;;;;;;;0.70;0.50;;;20.10;1.00;;;;;;2612129;54;20555;-65
2024/03/31 01:10:04;;;;;;;0.63;0.60;;;20.10;1.00;;;;;;2612258;54;20808;-66
2024/03/31 01:12:31;;;;;;;1.20;1.13;;;20.10;1.00;;;;;;2611778;47;20502;-65
2024/03/31 01:14:57;;;;;;;0.70;0.50;;;20.10;1.00;;;;;;2611764;47;20419;-63
2024/03/31 01:17:24;;;;;;;0.70;0.50;;;20.10;1.00;;;;;;2612233;54;20407;-62
2024/03/31 01:19:50;;;;;;;0.60;0.50;;;20.10;1.00;;;;;;2612694;47;20447;-62
2024/03/31 01:22:16;;;;;;;0.70;0.50;;;20.10;1.00;;;;;;2613592;54;20522;-62
2024/03/31 01:24:42;;;;;;;0.70;0.60;;;20.10;1.00;;;;;;2613630;47;20448;-62
2024/03/31 01:27:07;;;;;;;0.70;0.50;;;20.10;1.00;;;;;;2612931;54;20495;-63
2024/03/31 01:29:33;;;;;;;0.60;0.50;;;20.10;1.00;;;;;;2613735;54;20278;-62
2024/03/31 01:31:59;;;;;;;0.80;0.77;;;20.10;1.00;;;;;;2613340;54;20155;-63
2024/03/31 01:34:25;;;;;;;0.80;0.70;;;20.10;1.00;;;;;;2613281;54;20697;-62
2024/03/31 01:36:50;;;;;;;0.60;0.50;;;20.10;1.00;;;;;;2613430;54;20263;-63
2024/03/31 01:39:18;;;;;;;0.70;0.70;;;20.10;1.00;;;;;;2613332;54;20970;-62
2024/03/31 01:41:46;;;;;;;0.60;0.50;;;20.10;1.00;;;;;;2612945;54;20686;-62
2024/03/31 01:44:12;;;;;;;0.70;0.50;;;20.10;1.00;;;;;;2611931;47;20395;-62
2024/03/31 01:46:37;;;;;;;0.70;0.60;;;20.10;1.00;;;;;;2613697;31;20979;-63
2024/03/31 01:49:03;;;;;;;0.67;0.60;;;20.10;1.00;;;;;;2613525;54;20778;-63
2024/03/31 01:51:29;;;;;;;0.60;0.50;;;20.00;1.00;;;;;;2613249;54;20624;-63
2024/03/31 01:53:54;;;;;;;0.63;0.50;;;20.10;1.00;;;;;;2613170;47;20197;-62
2024/03/31 01:56:20;;;;;;;1.43;1.33;;;20.10;1.00;;;;;;2613477;39;20548;-63
2024/03/31 01:58:46;;;;;;;0.60;0.50;;;20.00;1.00;;;;;;2612877;54;20162;-62
2024/03/31 02:01:12;;;;;;;0.70;0.50;;;20.00;1.00;;;;;;2611857;54;20215;-63
2024/03/31 02:03:37;;;;;;;0.67;0.50;;;20.00;1.00;;;;;;2612731;46;20273;-62
2024/03/31 02:06:10;;;;;;;0.70;0.60;;;20.00;1.00;;;;;;2612368;47;20799;-67
2024/03/31 02:08:36;;;;;;;0.70;0.60;;;20.00;1.00;;;;;;2613031;54;20187;-66
2024/03/31 02:11:02;;;;;;;0.63;0.60;;;20.00;1.00;;;;;;2613099;54;20424;-66
2024/03/31 02:13:28;;;;;;;0.70;0.60;;;20.00;1.00;;;;;;2612877;39;20593;-66
2024/03/31 02:15:54;;;;;;;0.63;0.53;;;20.10;1.00;;;;;;2614503;54;20170;-73
2024/03/31 02:18:20;;;;;;;0.70;0.60;;;20.10;1.00;;;;;;2614583;39;20608;-73
2024/03/31 02:20:45;;;;;;;0.80;0.80;;;20.10;1.00;;;;;;2613682;54;20388;-72
2024/03/31 02:23:11;;;;;;;0.70;0.50;;;20.00;1.00;;;;;;2613240;54;20427;-72
2024/03/31 02:25:37;;;;;;;1.43;1.13;;;20.00;1.00;;;;;;2614087;54;20419;-73
2024/03/31 02:28:03;;;;;;;1.53;1.43;;;20.00;1.00;;;;;;2614472;39;20555;-74
2024/03/31 02:30:28;;;;;;;0.70;0.50;;;20.00;1.00;;;;;;2613504;47;20300;-73
2024/03/31 02:32:54;;;;;;;1.17;1.07;;;20.00;1.00;;;;;;2614486;47;20165;-74
2024/03/31 02:35:20;;;;;;;0.70;0.50;;;20.00;1.00;;;;;;2613417;47;20703;-72
2024/03/31 02:37:47;;;;;;;0.70;0.60;;;20.00;1.00;;;;;;2613833;54;20211;-72
2024/03/31 02:40:14;;;;;;;0.70;0.60;;;20.00;1.00;;;;;;2613739;54;20171;-73
2024/03/31 02:42:40;;;;;;;0.60;0.50;;;20.00;1.00;;;;;;2614001;54;20415;-73
2024/03/31 02:45:06;;;;;;;0.70;0.50;;;20.00;1.00;;;;;;2613355;54;20404;-73
2024/03/31 02:47:32;;;;;;;0.70;0.50;;;20.00;1.00;;;;;;2613689;54;20521;-73
2024/03/31 02:49:57;;;;;;;0.70;0.50;;;20.00;1.00;;;;;;2613635;54;20455;-73
2024/03/31 02:52:23;;;;;;;0.70;0.60;;;20.00;1.00;;;;;;2612913;54;20167;-73
2024/03/31 02:54:49;;;;;;;0.67;0.53;;;20.00;1.00;;;;;;2613642;47;20227;-73
2024/03/31 02:57:14;;;;;;;0.70;0.53;;;20.00;1.00;;;;;;2613629;54;20254;-73
2024/03/31 02:59:40;;;;;;;1.03;1.00;;;20.00;1.00;;;;;;2612556;54;20199;-72
2024/03/31 03:02:06;;;;;;;0.60;0.60;;;20.00;1.00;;;;;;2612601;54;20178;-73
2024/03/31 03:04:33;;;;;;;0.80;0.77;;;20.00;1.00;;;;;;2613021;54;20161;-72
2024/03/31 03:06:59;;;;;;;0.70;0.60;;;20.00;1.00;;;;;;2612513;54;20143;-72
2024/03/31 03:09:25;;;;;;;2.47;2.27;;;20.00;1.00;;;;;;2613539;54;20447;-72
2024/03/31 03:11:51;;;;;;;0.70;0.60;;;20.00;1.00;;;;;;2613746;47;20170;-73
2024/03/31 03:14:17;;;;;;;0.70;0.50;;;20.00;1.00;;;;;;2613734;54;20391;-73
2024/03/31 03:16:42;;;;;;;0.70;0.60;;;20.00;1.00;;;;;;2612774;54;20219;-63
2024/03/31 03:19:08;;;;;;;0.90;0.90;;;20.00;1.00;;;;;;2612254;54;20246;-62
2024/03/31 03:21:34;;;;;;;0.70;0.60;;;20.00;1.00;;;;;;2612376;54;21189;-61
2024/03/31 03:23:59;;;;;;;0.70;0.53;;;20.00;1.00;;;;;;2613439;54;20150;-61
2024/03/31 03:26:25;;;;;;;0.60;0.50;;;20.00;1.00;;;;;;2612922;54;20513;-63
2024/03/31 03:28:51;;;;;;;0.70;0.50;;;20.00;1.00;;;;;;2613476;39;20645;-62
2024/03/31 03:31:16;;;;;;;0.70;0.50;;;20.00;1.00;;;;;;2613090;54;20171;-63
2024/03/31 03:33:42;;;;;;;0.60;0.50;;;20.00;1.00;;;;;;2613056;54;20193;-63
2024/03/31 03:36:08;;;;;;;0.63;0.50;;;20.00;1.00;;;;;;2612733;47;20211;-60
2024/03/31 03:38:34;;;;;;;0.70;0.70;;;20.00;1.00;;;;;;2613226;54;20672;-61
2024/03/31 03:41:00;;;;;;;0.60;0.50;;;20.00;1.00;;;;;;2611873;54;20439;-60
2024/03/31 03:43:32;;;;;;;0.70;0.53;;;20.00;1.00;;;;;;2612600;54;20226;-61
2024/03/31 03:46:02;;;;;;;0.70;0.50;;;20.00;1.00;;;;;;2613045;54;20638;-59
2024/03/31 03:48:28;;;;;;;1.03;0.93;;;20.00;1.00;;;;;;2612704;54;20446;-61
2024/03/31 03:50:54;;;;;;;0.70;0.50;;;20.00;1.00;;;;;;2613160;46;20435;-60
2024/03/31 03:53:20;;;;;;;0.90;0.90;;;20.00;1.00;;;;;;2612453;47;20435;-59
2024/03/31 03:55:46;;;;;;;0.70;0.70;;;20.00;1.00;;;;;;2612726;39;20589;-59
2024/03/31 03:58:12;;;;;;;0.83;0.77;;;19.90;1.00;;;;;;2612431;54;20159;-60
2024/03/31 04:00:42;;;;;;;0.70;0.60;;;20.00;1.00;;;;;;2612026;54;20419;-62
2024/03/31 04:03:08;;;;;;;1.73;1.63;;;20.00;1.00;;;;;;2612718;54;20407;-60
2024/03/31 04:05:34;;;;;;;1.33;1.23;;;20.00;1.00;;;;;;2611781;54;20411;-60
2024/03/31 04:07:59;;;;;;;0.70;0.63;;;19.90;1.00;;;;;;2612417;54;20502;-60
2024/03/31 04:10:25;;;;;;;0.70;0.60;;;20.00;1.00;;;;;;2612328;47;20422;-59
2024/03/31 04:12:51;;;;;;;0.70;0.60;;;20.00;1.00;;;;;;2612927;54;20158;-59
2024/03/31 04:15:17;;;;;;;0.70;0.50;;;20.00;1.00;;;;;;2613587;39;20829;-61
2024/03/31 04:17:43;;;;;;;0.70;0.60;;;19.90;1.00;;;;;;2612455;54;20191;-60
2024/03/31 04:20:08;;;;;;;0.70;0.60;;;19.90;1.00;;;;;;2612706;54;20234;-61
2024/03/31 04:22:34;;;;;;;0.70;0.70;;;19.90;1.00;;;;;;2613117;47;20182;-59
2024/03/31 04:25:00;;;;;;;0.70;0.60;;;19.90;1.00;;;;;;2611723;54;20415;-66
2024/03/31 04:27:27;;;;;;;1.53;1.43;;;19.90;1.00;;;;;;2613136;54;20199;-66
2024/03/31 04:29:52;;;;;;;0.70;0.60;;;19.90;1.00;;;;;;2612994;54;20973;-67
2024/03/31 04:32:18;;;;;;;1.00;1.00;;;20.00;1.00;;;;;;2612852;54;20396;-67
2024/03/31 04:34:44;;;;;;;1.53;1.43;;;20.00;1.00;;;;;;2613087;54;20179;-66
2024/03/31 04:37:10;;;;;;;0.70;0.60;;;20.00;1.00;;;;;;2612207;39;20569;-66
2024/03/31 04:39:35;;;;;;;0.80;0.80;;;20.00;1.00;;;;;;2612315;54;20151;-67
2024/03/31 04:42:01;;;;;;;0.70;0.60;;;19.90;1.00;;;;;;2612702;47;21017;-66
2024/03/31 04:44:27;;;;;;;0.60;0.50;;;19.90;1.00;;;;;;2613152;54;20703;-66
2024/03/31 04:46:53;;;;;;;1.43;1.33;;;19.90;1.00;;;;;;2612224;47;20534;-66
2024/03/31 04:49:19;;;;;;;0.60;0.50;;;20.00;1.00;;;;;;2612399;54;20211;-65
2024/03/31 04:51:48;;;;;;;0.60;0.60;;;19.90;1.00;;;;;;2613176;39;20504;-66
2024/03/31 04:54:14;;;;;;;1.47;1.33;;;19.90;1.00;;;;;;2612626;54;20451;-65
2024/03/31 04:56:40;;;;;;;0.70;0.60;;;19.90;1.00;;;;;;2611917;54;20948;-65
2024/03/31 04:59:07;;;;;;;0.70;0.50;;;20.00;1.00;;;;;;2613105;39;20561;-66
2024/03/31 05:01:33;;;;;;;0.70;0.50;;;19.90;1.00;;;;;;2611564;54;20155;-65
2024/03/31 05:03:59;;;;;;;1.83;1.73;;;19.90;1.00;;;;;;2612002;51;20415;-65
2024/03/31 05:06:25;;;;;;;0.70;0.60;;;19.90;1.00;;;;;;2613208;54;20432;-66
2024/03/31 05:08:50;;;;;;;0.70;0.60;;;19.90;1.00;;;;;;2611919;54;20258;-65
2024/03/31 05:11:16;;;;;;;0.70;0.50;;;19.90;1.00;;;;;;2612937;54;20182;-65
2024/03/31 05:13:42;;;;;;;0.77;0.77;;;19.90;1.00;;;;;;2612352;47;20199;-66
2024/03/31 05:16:09;;;;;;;0.70;0.60;;;19.90;1.00;;;;;;2613292;39;20561;-65
2024/03/31 05:18:35;;;;;;;0.60;0.50;;;19.90;1.00;;;;;;2612653;47;20257;-66
2024/03/31 05:21:05;;;;;;;2.07;1.97;;;19.90;1.00;;;;;;2612294;54;20448;-66
2024/03/31 05:23:32;;;;;;;0.70;0.60;;;19.90;1.00;;;;;;2613124;39;20562;-66
2024/03/31 05:25:59;;;;;;;0.70;0.60;;;19.90;1.00;;;;;;2612276;39;20959;-66
2024/03/31 05:28:26;;;;;;;0.60;0.50;;;19.90;1.00;;;;;;2613023;54;20399;-66
2024/03/31 05:30:52;;;;;;;1.63;1.53;;;19.90;1.00;;;;;;2611936;54;20399;-65
2024/03/31 05:33:18;;;;;;;0.70;0.67;;;19.90;1.00;;;;;;2612851;54;20423;-66
2024/03/31 05:35:45;;;;;;;0.90;0.90;;;19.90;1.00;;;;;;2612719;54;20435;-66
2024/03/31 05:38:13;;;;;;;0.70;0.60;;;19.90;1.00;;;;;;2613071;39;20839;-65
2024/03/31 05:40:43;;;;;;;0.60;0.50;;;19.90;1.00;;;;;;2612536;54;20415;-65
2024/03/31 05:43:09;;;;;;;0.87;0.87;;;19.90;1.00;;;;;;2612552;39;20799;-66
2024/03/31 05:45:37;;;;;;;0.60;0.50;;;19.90;1.00;;;;;;2613019;54;20431;-62
2024/03/31 05:48:11;;;;;;;0.70;0.60;;;19.90;1.00;;;;;;2612436;54;20439;-62
2024/03/31 05:50:38;;;;;;;0.67;0.60;;;19.90;1.00;;;;;;2611897;54;20506;-63
2024/03/31 05:53:04;;;;;;;7.37;4.77;;;19.90;1.00;;;;;;2611490;54;21008;-62
2024/03/31 05:55:30;;;;;;;1.73;1.63;;;19.90;1.00;;;;;;2612729;54;20427;-62
2024/03/31 05:57:56;;;;;;;0.80;0.77;;;19.90;1.00;;;;;;2611759;54;20589;-62
2024/03/31 06:00:22;;;;;;;1.07;1.03;;;19.90;1.00;;;;;;2611977;54;20408;-62
2024/03/31 06:02:48;;;;;;;0.70;0.53;;;19.90;1.00;;;;;;2611606;47;20434;-62
2024/03/31 06:05:14;;;;;;;1.00;0.80;;;19.90;1.00;;;;;;2612310;47;20423;-62
2024/03/31 06:07:40;;;;;;;0.70;0.60;;;19.90;1.00;;;;;;2612197;54;20411;-62
2024/03/31 06:10:06;;;;;;;0.67;0.60;;;19.90;1.00;;;;;;2612401;47;20159;-62
2024/03/31 06:12:31;;;;;;;0.80;0.80;;;19.90;1.00;;;;;;2612392;54;20171;-61
2024/03/31 06:14:57;;;;;;;0.70;0.70;;;19.90;1.00;;;;;;2613228;31;20703;-62
2024/03/31 06:17:23;;;;;;;0.70;0.60;;;19.90;1.00;;;;;;2612517;54;20165;-62
2024/03/31 06:19:48;;;;;;;0.70;0.70;;;19.90;1.00;;;;;;2612655;54;20163;-62
2024/03/31 06:22:14;;;;;;;0.70;0.50;;;19.90;1.00;;;;;;2612748;54;20162;-62
2024/03/31 06:24:41;;;;;;;0.60;0.60;;;19.90;1.00;;;;;;2612152;54;20163;-61
2024/03/31 06:27:07;;;;;;;0.70;0.50;;;19.80;1.00;;;;;;2613651;39;20889;-63
2024/03/31 06:29:32;;;;;;;0.70;0.60;;;19.80;1.00;;;;;;2612124;50;20485;-61
2024/03/31 06:31:58;;;;;;;0.70;0.70;;;19.90;1.00;;;;;;2612704;54;20174;-62
2024/03/31 06:34:24;;;;;;;1.37;1.27;;;19.90;1.00;;;;;;2612393;54;20159;-62
2024/03/31 06:36:49;;;;;;;0.60;0.60;;;19.90;1.00;;;;;;2612706;54;20167;-62
2024/03/31 06:39:15;;;;;;;0.70;0.60;;;19.90;1.00;;;;;;2611931;39;20500;-62
2024/03/31 06:41:41;;;;;;;0.70;0.50;;;19.90;1.00;;;;;;2611613;47;20242;-62
2024/03/31 06:44:06;;;;;;;0.70;0.60;;;19.90;1.00;;;;;;2612447;54;20157;-62
2024/03/31 06:46:32;;;;;;;0.70;0.60;;;19.90;1.00;;;;;;2612283;54;20177;-62
2024/03/31 06:48:57;;;;;;;0.70;0.60;;;19.90;1.00;;;;;;2612680;47;20744;-62
2024/03/31 06:51:26;;;;;;;0.80;0.80;;;19.90;1.00;;;;;;2612619;39;20548;-62
2024/03/31 06:53:52;;;;;;;0.70;0.53;;;19.90;1.00;;;;;;2611562;51;20205;-62
2024/03/31 06:56:18;;;;;;;0.70;0.60;;;19.90;1.00;;;;;;2611980;54;21005;-62
2024/03/31 06:58:44;;;;;;;0.70;0.60;;;19.90;1.00;;;;;;2611802;54;20163;-61
2024/03/31 07:01:09;;;;;;;0.70;0.60;;;19.90;1.00;;;;;;2610910;54;20462;-61
2024/03/31 07:03:35;;;;;;;0.70;0.60;;;19.90;1.00;;;;;;2611802;54;20151;-62
2024/03/31 07:06:02;;;;;;;2.63;2.50;;;19.90;1.00;;;;;;2611963;54;20211;-66
2024/03/31 07:08:28;;;;;;;0.70;0.60;;;19.90;1.00;;;;;;2612507;47;20419;-65
2024/03/31 07:10:53;;;;;;;0.70;0.60;;;19.90;1.00;;;;;;2612009;54;20510;-66
2024/03/31 07:13:19;;;;;;;0.67;0.60;;;19.90;1.00;;;;;;2612141;54;20153;-66
2024/03/31 07:15:45;;;;;;;0.70;0.60;;;19.90;1.00;;;;;;2613488;31;20620;-73
2024/03/31 07:18:10;;;;;;;1.73;1.63;;;19.90;1.00;;;;;;2612957;39;20560;-73
2024/03/31 07:20:37;;;;;;;0.70;0.60;;;19.90;1.00;;;;;;2613761;47;20191;-73
2024/03/31 07:23:06;;;;;;;0.70;0.60;;;19.90;1.00;;;;;;2612740;47;20225;-72
2024/03/31 07:25:34;;;;;;;0.70;0.60;;;19.90;1.00;;;;;;2613373;39;20832;-62
2024/03/31 07:28:01;;;;;;;0.80;0.80;;;19.90;1.00;;;;;;2611905;47;20431;-63
2024/03/31 07:30:26;;;;;;;0.70;0.70;;;19.90;1.00;;;;;;2612299;54;20396;-62
2024/03/31 07:32:52;;;;;;;0.70;0.60;;;20.00;1.00;;;;;;2612331;54;20430;-63
2024/03/31 07:35:19;;;;;;;0.70;0.60;;;19.90;1.00;;;;;;2611655;47;20181;-63
2024/03/31 07:37:45;;;;;;;0.70;0.60;;;20.00;1.00;;;;;;2612893;39;20540;-63
2024/03/31 07:40:11;;;;;;;8.23;2.40;;;19.90;1.00;;;;;;2612364;54;20423;-62
2024/03/31 07:42:36;;;;;;;1.23;1.13;;;19.90;1.00;;;;;;2611993;54;20911;-63
2024/03/31 07:45:03;;;;;;;3.20;2.90;;;19.90;1.00;;;;;;2612299;47;20258;-63
2024/03/31 07:47:29;;;;;;;0.97;0.87;;;20.00;1.00;;;;;;2611168;54;20692;-62
2024/03/31 07:49:55;;;;;;;0.60;0.50;;;20.00;1.00;;;;;;2612335;54;20443;-62
2024/03/31 07:52:20;;;;;;;0.80;0.80;;;20.00;1.00;;;;;;2612487;39;20593;-62
2024/03/31 07:54:46;;;;;;;0.70;0.60;;;20.00;1.00;;;;;;2611941;54;20205;-63
2024/03/31 07:57:12;;;;;;;0.67;0.50;;;20.00;1.00;;;;;;2612007;54;20679;-62
2024/03/31 07:59:37;;;;;;;1.33;1.23;;;20.10;1.00;;;;;;2611272;47;20286;-62
2024/03/31 08:02:03;;;;;;;1.20;1.10;;;20.10;1.00;;;;;;2610736;54;20255;-62
2024/03/31 08:04:29;;;;;;;0.87;0.80;;;20.10;1.00;;;;;;2611915;54;20254;-63
2024/03/31 08:06:55;;;;;;;0.70;0.60;;;20.10;1.00;;;;;;2612620;54;20211;-63
2024/03/31 08:09:20;;;;;;;2.20;2.10;;;20.10;1.00;;;;;;2611676;54;20170;-64
2024/03/31 08:11:46;;;;;;;0.70;0.70;;;20.10;1.00;;;;;;2612159;54;20708;-63
2024/03/31 08:14:12;;;;;;;0.70;0.60;;;20.10;1.00;;;;;;2612259;54;20155;-63
2024/03/31 08:16:37;;;;;;;0.70;0.50;;;20.10;1.00;;;;;;2612644;39;20626;-63
2024/03/31 08:19:03;;;;;;;2.60;1.23;;;20.10;1.00;;;;;;2612002;47;20174;-62
2024/03/31 08:21:29;;;;;;;0.70;0.60;;;20.10;1.00;;;;;;2611930;54;20218;-62
2024/03/31 08:23:55;;;;;;;0.70;0.70;;;20.10;1.00;;;;;;2612388;54;21210;-62
2024/03/31 08:26:20;;;;;;;0.70;0.70;;;20.10;1.00;;;;;;2612963;39;20609;-73
2024/03/31 08:28:46;;;;;;;0.70;0.60;;;20.10;1.00;;;;;;2612253;54;20730;-73
2024/03/31 08:31:12;;;;;;;1.10;0.90;;;20.20;1.00;;;;;;2613585;54;20170;-72
2024/03/31 08:33:37;;;;;;;1.73;1.63;;;20.20;1.00;;;;;;2613228;54;20681;-73
2024/03/31 08:36:03;;;;;;;0.70;0.60;;;20.20;1.00;;;;;;2613608;54;20167;-63
2024/03/31 08:38:29;;;;;;;0.70;0.60;;;20.20;1.00;;;;;;2612855;47;20195;-62
2024/03/31 08:41:00;;;;;;;0.70;0.60;;;20.20;1.00;;;;;;2612550;54;21692;-62
2024/03/31 08:43:29;;;;;;;0.70;0.70;;;20.10;1.00;;;;;;2613118;47;20170;-62
2024/03/31 08:45:56;;;;;;;0.70;0.60;;;20.20;1.00;;;;;;2612758;46;20462;-62
2024/03/31 08:48:25;;;;;;;0.70;0.67;;;20.20;1.00;;;;;;2612804;54;20483;-62
2024/03/31 08:50:53;;;;;;;0.70;0.60;;;20.20;1.00;;;;;;2612868;54;20399;-62
2024/03/31 08:53:19;;;;;;;0.70;0.60;;;20.20;1.00;;;;;;2612699;46;20463;-63
2024/03/31 08:55:45;;;;;;;0.60;0.60;;;20.20;1.00;;;;;;2612836;39;20840;-62
2024/03/31 08:58:11;;;;;;;0.63;0.60;;;20.20;1.00;;;;;;2613546;39;20811;-61
2024/03/31 09:00:43;;;;;;;0.87;0.83;;;20.20;1.00;;;;;;2612609;54;20411;-62
2024/03/31 09:03:09;;;;;;;0.70;0.60;;;20.20;1.00;;;;;;2612293;54;20170;-62
2024/03/31 09:05:36;;;;;;;0.70;0.60;;;20.30;1.00;;;;;;2612531;47;20423;-62
2024/03/31 09:08:06;;;;;;;0.70;0.50;;;20.30;1.00;;;;;;2612854;54;20459;-62
2024/03/31 09:10:32;;;;;;;0.73;0.73;;;20.30;1.00;;;;;;2611670;54;20995;-62
2024/03/31 09:12:57;;;;;;;0.70;0.60;;;20.30;1.00;;;;;;2612878;54;20513;-62
2024/03/31 09:15:23;;;;;;;0.73;0.73;;;20.30;1.00;;;;;;2613062;54;20163;-63
2024/03/31 09:17:49;;;;;;;0.60;0.50;;;20.30;1.00;;;;;;2612022;54;20341;-62
2024/03/31 09:20:15;;;;;;;0.60;0.50;;;20.30;1.00;;;;;;2612620;54;20167;-62
2024/03/31 09:22:41;;;;;;;0.60;0.60;;;20.40;1.00;;;;;;2612958;47;20170;-62
2024/03/31 09:25:10;;;;;;;0.97;0.97;;;20.40;1.00;;;;;;2612618;54;20171;-60
2024/03/31 09:27:36;;;;;;;0.70;0.63;;;20.40;1.00;;;;;;2612897;54;20447;-61
2024/03/31 09:30:06;;;;;;;0.70;0.67;;;20.40;1.00;;;;;;2612090;54;21015;-59
2024/03/31 09:32:31;;;;;;;0.70;0.60;;;20.50;1.00;;;;;;2612796;54;20431;-59
2024/03/31 09:34:57;;;;;;;1.27;1.17;;;20.50;1.00;;;;;;2612413;54;20434;-72
2024/03/31 09:37:23;;;;;;;0.70;0.60;;;20.50;1.00;;;;;;2612708;54;20173;-72
2024/03/31 09:39:49;;;;;;;0.70;0.50;;;20.60;1.00;;;;;;2612721;54;20186;-73
2024/03/31 09:42:14;;;;;;;0.60;0.50;;;20.60;1.00;;;;;;2612871;54;20182;-72
2024/03/31 09:44:44;;;;;;;0.70;0.60;;;20.70;1.00;;;;;;2612901;54;20174;-62
2024/03/31 09:47:22;;;;;;;0.70;0.60;;;20.70;1.00;;;;;;2612548;39;20613;-62
2024/03/31 09:50:08;;;;;;;0.67;0.60;;;20.70;1.00;;;;;;2613122;54;20533;-62
2024/03/31 09:52:34;;;;;;;0.60;0.60;;;20.70;1.00;;;;;;2612533;54;20423;-63
2024/03/31 09:55:09;;;;;;;1.00;1.00;;;20.80;1.00;;;;;;2612430;54;20411;-61
2024/03/31 09:57:43;;;;;;;0.60;0.60;;;20.80;1.00;;;;;;2612806;54;20861;-62
2024/03/31 10:00:13;;;;;;;0.70;0.60;;;20.90;1.00;;;;;;2611954;47;20466;-63
2024/03/31 10:03:03;;;;;;;0.70;0.60;;;20.90;1.00;;;;;;2610957;54;20515;-63
2024/03/31 10:05:38;;;;;;;0.90;0.80;;;20.90;1.00;;;;;;2612663;54;20431;-62
2024/03/31 10:08:05;;;;;;;0.70;0.60;;;20.90;1.00;;;;;;2612075;54;20518;-62
2024/03/31 10:10:34;;;;;;;0.70;0.50;;;20.90;1.00;;;;;;2612276;54;20953;-63
2024/03/31 10:13:00;;;;;;;0.70;0.60;;;20.90;1.00;;;;;;2612958;51;21274;-62
2024/03/31 10:15:27;;;;;;;0.70;0.50;;;21.00;1.00;;;;;;2612357;39;20683;-62
2024/03/31 10:17:55;;;;;;;0.60;0.60;;;21.00;1.00;;;;;;2612367;39;20778;-64
2024/03/31 10:20:22;;;;;;;0.70;0.67;;;21.00;1.00;;;;;;2612475;54;20481;-62
2024/03/31 10:22:48;;;;;;;0.70;0.60;;;21.00;1.00;;;;;;2612546;47;20427;-62
2024/03/31 10:25:14;;;;;;;0.63;0.50;;;21.10;1.00;;;;;;2611376;54;20442;-61
2024/03/31 10:27:44;;;;;;;0.60;0.50;;;21.10;1.00;;;;;;2612284;54;20933;-63
2024/03/31 10:30:10;;;;;;;0.63;0.60;;;21.10;1.00;;;;;;2612850;54;20186;-62
2024/03/31 10:32:37;;;;;;;1.00;1.00;;;21.10;1.00;;;;;;2612141;54;20473;-62
2024/03/31 10:35:06;;;;;;;0.60;0.50;;;21.10;1.00;;;;;;2612351;54;20506;-60
2024/03/31 10:37:36;;;;;;;0.70;0.57;;;21.20;1.00;;;;;;2612292;54;20877;-60
2024/03/31 10:40:04;;;;;;;0.70;0.50;;;21.20;1.00;;;;;;2612692;47;20415;-61
2024/03/31 10:42:31;;;;;;;0.90;0.83;;;21.20;1.00;;;;;;2611890;54;20915;-61
2024/03/31 10:44:57;;;;;;;1.00;0.90;;;21.30;1.00;;;;;;2612275;54;20457;-66
2024/03/31 10:47:23;;;;;;;0.70;0.60;;;21.30;1.00;;;;;;2612003;54;20415;-66
2024/03/31 10:50:04;;;;;;;0.70;0.50;;;21.30;1.00;;;;;;2612732;54;20446;-66
2024/03/31 10:52:32;;;;;;;1.10;1.00;;;21.30;1.00;;;;;;2611883;47;20186;-67
2024/03/31 10:54:59;;;;;;;0.60;0.40;;;21.30;1.00;;;;;;2612348;54;20415;-73
2024/03/31 10:57:34;;;;;;;0.63;0.53;;;21.40;1.00;;;;;;2612841;54;20427;-73
2024/03/31 11:00:01;;;;;;;0.60;0.50;;;21.30;1.00;;;;;;2612788;47;20449;-72
2024/03/31 11:02:30;;;;;;;0.63;0.50;;;21.30;1.00;;;;;;2611938;54;20953;-73
2024/03/31 11:05:06;;;;;;;0.70;0.50;;;21.30;1.00;;;;;;2613167;54;20460;-73
2024/03/31 11:07:35;;;;;;;0.60;0.50;;;21.40;1.00;;;;;;2612591;47;20411;-73
2024/03/31 11:10:12;;;;;;;0.70;0.50;;;21.40;1.00;;;;;;2612951;54;20439;-73
2024/03/31 11:12:42;;;;;;;0.70;0.60;;;21.40;1.00;;;;;;2613014;46;20988;-73
2024/03/31 11:15:09;;;;;;;0.70;0.50;;;21.40;1.00;;;;;;2613283;54;20411;-73
2024/03/31 11:17:35;;;;;;;0.60;0.50;;;21.30;1.00;;;;;;2612720;54;20427;-73
2024/03/31 11:20:04;;;;;;;0.70;0.50;;;21.30;1.00;;;;;;2612354;54;20450;-72
2024/03/31 11:22:30;;;;;;;0.70;0.60;;;21.40;1.00;;;;;;2613023;54;20728;-73
2024/03/31 11:24:57;;;;;;;0.70;0.60;;;21.40;1.00;;;;;;2612365;47;20439;-73
2024/03/31 11:27:23;;;;;;;0.63;0.50;;;21.40;1.00;;;;;;2612382;47;20466;-73
2024/03/31 11:29:49;;;;;;;0.70;0.50;;;21.40;1.00;;;;;;2612689;54;20427;-73
2024/03/31 11:32:16;;;;;;;0.70;0.60;;;21.40;1.00;;;;;;2612752;54;20435;-73
2024/03/31 11:34:48;;;;;;;0.70;0.60;;;21.50;1.00;;;;;;2613458;54;20431;-73
2024/03/31 11:37:15;;;;;;;0.70;0.50;;;21.40;1.00;;;;;;2611995;54;20428;-74
2024/03/31 11:39:41;;;;;;;0.67;0.57;;;21.40;1.00;;;;;;2613032;54;20427;-73
2024/03/31 11:42:07;;;;;;;0.70;0.50;;;21.40;1.00;;;;;;2612840;47;20458;-72
2024/03/31 11:44:35;;;;;;;0.60;0.50;;;21.30;1.00;;;;;;2612802;54;21005;-73
2024/03/31 11:47:02;;;;;;;0.70;0.50;;;21.40;1.00;;;;;;2612032;47;20426;-62
2024/03/31 11:49:32;;;;;;;0.70;0.60;;;21.40;1.00;;;;;;2612325;54;21046;-63
2024/03/31 11:51:58;;;;;;;0.60;0.50;;;21.30;1.00;;;;;;2612109;54;20415;-63
2024/03/31 11:54:24;;;;;;;0.70;0.50;;;21.30;1.00;;;;;;2612308;39;20958;-62
2024/03/31 11:56:50;;;;;;;0.70;0.70;;;21.30;1.00;;;;;;2612365;47;20416;-61
2024/03/31 11:59:18;;;;;;;0.60;0.50;;;21.30;1.00;;;;;;2611959;54;20432;-62
2024/03/31 12:01:44;;;;;;;0.60;0.50;;;21.20;1.00;;;;;;2611190;54;20418;-62
2024/03/31 12:04:16;;;;;;;0.60;0.50;;;21.20;1.00;;;;;;2611237;54;21016;-63
2024/03/31 12:06:43;;;;;;;0.60;0.50;;;21.20;1.00;;;;;;2612296;39;20870;-59
2024/03/31 12:09:09;;;;;;;0.60;0.50;;;21.20;1.00;;;;;;2611872;46;20422;-59
2024/03/31 12:11:35;;;;;;;0.70;0.50;;;21.20;1.00;;;;;;2612507;47;20416;-62
2024/03/31 12:14:02;;;;;;;0.60;0.50;;;21.10;1.00;;;;;;2612862;54;20426;-59
2024/03/31 12:16:28;;;;;;;1.63;1.53;;;21.10;1.00;;;;;;2611744;54;21556;-59
2024/03/31 12:18:54;;;;;;;0.70;0.50;;;21.10;1.00;;;;;;2612454;39;20840;-58
2024/03/31 12:21:20;;;;;;;0.60;0.50;;;21.10;1.00;;;;;;2611476;54;20419;-60
2024/03/31 12:23:47;;;;;;;1.47;1.37;;;21.00;1.00;;;;;;2611810;54;20151;-59
2024/03/31 12:26:17;;;;;;;0.60;0.60;;;21.10;1.00;;;;;;2611282;54;20403;-59
2024/03/31 12:28:45;;;;;;;0.63;0.50;;;21.10;1.00;;;;;;2612157;54;20426;-60
2024/03/31 12:31:15;;;;;;;0.60;0.50;;;21.10;1.00;;;;;;2611896;54;20419;-59
2024/03/31 12:33:42;;;;;;;0.60;0.50;;;21.10;1.00;;;;;;2611795;46;20574;-58
2024/03/31 12:36:08;;;;;;;0.70;0.60;;;21.10;1.00;;;;;;2612123;54;20999;-59
2024/03/31 12:38:34;;;;;;;0.70;0.50;;;21.10;1.00;;;;;;2612051;54;20419;-61
2024/03/31 12:41:00;;;;;;;0.70;0.60;;;21.10;1.00;;;;;;2612176;54;20411;-60
2024/03/31 12:43:27;;;;;;;0.67;0.60;;;21.10;1.00;;;;;;2611729;47;20424;-59
2024/03/31 12:45:53;;;;;;;0.70;0.60;;;21.10;1.00;;;;;;2612679;39;20814;-59
2024/03/31 12:48:21;;;;;;;0.60;0.50;;;21.10;1.00;;;;;;2611894;54;20412;-60
2024/03/31 12:50:50;;;;;;;0.70;0.50;;;21.10;1.00;;;;;;2612212;39;20985;-59
2024/03/31 12:53:16;;;;;;;0.70;0.50;;;21.10;1.00;;;;;;2611688;54;20447;-60
2024/03/31 12:55:42;;;;;;;0.63;0.50;;;21.10;1.00;;;;;;2611974;54;20428;-63